This is the latest recevied weather packets stored in our database for station/object VE2JJ-13. If no packets are shown the sender has not sent any weather packets the latest 10 day(s).
| Time | Temp. | Humidity | Pressure | Rain* | Wind** | Luminosity | Snow |
|---|---|---|---|---|---|---|---|
| 1777922874 | 17.78° C | 56% | 996.7 hPa | 0 mm | - | - | - |
| 1777922253 | 17.78° C | 56% | 996.7 hPa | 0 mm | - | - | - |
| 1777921914 | 17.78° C | 56% | 997 hPa | 0 mm | - | - | - |
| 1777921287 | 17.22° C | 57% | 997.3 hPa | 0 mm | - | - | - |
| 1777920987 | 16.11° C | 59% | 997.3 hPa | 0 mm | - | - | - |
| 1777919785 | 16.67° C | 59% | 997.4 hPa | 0 mm | - | - | - |
| 1777918197 | 14.44° C | 63% | 997.6 hPa | 0 mm | - | - | - |
| 1777917238 | 15° C | 64% | 997.7 hPa | 0 mm | - | - | - |
| 1777916606 | 15.56° C | 62% | 997.8 hPa | 0 mm | - | - | - |
| 1777916310 | 15° C | 64% | 997.9 hPa | 0 mm | - | - | - |
| 1777916007 | 14.44° C | 65% | 997.9 hPa | 0 mm | - | - | - |
| 1777915674 | 15° C | 65% | 997.9 hPa | 0 mm | - | - | - |
| 1777915374 | 14.44° C | 66% | 997.9 hPa | 0 mm | - | - | - |
| 1777915077 | 14.44° C | 65% | 997.9 hPa | 0 mm | - | - | - |
| 1777914086 | 15° C | 66% | 997.8 hPa | 0 mm | - | - | - |
| 1777911894 | 13.33° C | 69% | 997.9 hPa | 0 mm | - | - | - |
| 1777910939 | 12.78° C | 74% | 997.8 hPa | 0 mm | - | - | - |
| 1777910303 | 11.67° C | 76% | 997.9 hPa | 0 mm | - | - | - |
| 1777909645 | 11.11° C | 79% | 997.8 hPa | 0 mm | - | - | - |
| 1777909346 | 11.11° C | 80% | 997.8 hPa | 0 mm | - | - | - |
| 1777909045 | 11.11° C | 81% | 997.9 hPa | 0 mm | - | - | - |
| 1777908745 | 11.11° C | 82% | 997.9 hPa | 0 mm | - | - | - |
| 1777908416 | 10.56° C | 86% | 998 hPa | 0 mm | - | - | - |
| 1777907427 | 10.56° C | 88% | 997.9 hPa | 0 mm | - | - | - |
| 1777905534 | 10° C | 90% | 997.8 hPa | 0 mm | - | - | - |
* Rain latest hour (hover to see other rain measurements)
** Current wind speed in m/s (hover to see current wind gust speed)